createdAt,value
2017-05-09T00:00:12.970Z,7.97
2017-05-09T00:00:53.498Z,7.93
2017-05-09T00:01:34.027Z,7.92
2017-05-09T00:02:14.562Z,7.95
2017-05-09T00:02:55.106Z,7.95
2017-05-09T00:03:35.637Z,7.92
2017-05-09T00:04:16.168Z,7.97
2017-05-09T00:04:56.694Z,7.95
2017-05-09T00:05:37.230Z,7.97
2017-05-09T00:06:17.761Z,7.92
2017-05-09T00:06:58.296Z,7.87
2017-05-09T00:07:38.821Z,7.83
2017-05-09T00:08:19.354Z,7.79
2017-05-09T00:08:59.888Z,7.77
2017-05-09T00:09:40.491Z,7.83
2017-05-09T00:10:20.991Z,7.8
2017-05-09T00:11:01.527Z,7.82
2017-05-09T00:11:42.062Z,7.75
2017-05-09T00:12:22.588Z,7.77
2017-05-09T00:13:03.117Z,7.75
2017-05-09T00:13:43.648Z,7.71
2017-05-09T00:14:24.195Z,7.74
2017-05-09T00:15:04.700Z,7.75
2017-05-09T00:15:45.226Z,7.77
2017-05-09T00:16:25.760Z,7.75
2017-05-09T00:17:06.303Z,7.64
2017-05-09T00:17:46.839Z,7.68
2017-05-09T00:18:27.368Z,7.72
2017-05-09T00:19:07.891Z,7.75
2017-05-09T00:19:48.423Z,7.74
2017-05-09T00:20:28.956Z,7.63
2017-05-09T00:21:09.491Z,7.57
2017-05-09T00:21:50.025Z,7.61
2017-05-09T00:22:30.571Z,7.64
2017-05-09T00:23:11.093Z,7.61
2017-05-09T00:23:51.637Z,7.57
2017-05-09T00:24:32.176Z,7.53
2017-05-09T00:25:12.709Z,7.6
2017-05-09T00:25:53.234Z,7.52
2017-05-09T00:26:33.762Z,7.53
2017-05-09T00:27:14.290Z,7.52
2017-05-09T00:27:54.818Z,7.55
2017-05-09T00:28:35.349Z,7.52
2017-05-09T00:29:15.882Z,7.42
2017-05-09T00:29:56.419Z,7.49
2017-05-09T00:30:36.936Z,7.46
2017-05-09T00:31:17.469Z,7.45
2017-05-09T00:31:57.990Z,7.48
2017-05-09T00:32:38.520Z,7.4
2017-05-09T00:33:19.042Z,7.43
2017-05-09T00:33:59.578Z,7.4
2017-05-09T00:34:40.110Z,7.37
2017-05-09T00:35:20.652Z,7.35
2017-05-09T00:36:01.187Z,7.32
2017-05-09T00:36:41.720Z,7.27
2017-05-09T00:37:22.263Z,7.32
2017-05-09T00:38:02.791Z,7.34
2017-05-09T00:38:43.318Z,7.25
2017-05-09T00:39:23.853Z,7.2
2017-05-09T00:40:04.387Z,7.2
2017-05-09T00:40:44.915Z,7.17
2017-05-09T00:41:25.457Z,7.21
2017-05-09T00:42:05.988Z,7.28
2017-05-09T00:42:46.526Z,7.25
2017-05-09T00:43:27.065Z,7.24
2017-05-09T00:44:07.592Z,7.27
2017-05-09T00:44:48.118Z,7.27
2017-05-09T00:45:28.651Z,7.17
2017-05-09T00:46:09.188Z,7.15
2017-05-09T00:46:49.729Z,7.12
2017-05-09T00:47:30.257Z,7.16
2017-05-09T00:48:10.790Z,7.13
2017-05-09T00:48:51.324Z,7.15
2017-05-09T00:49:31.859Z,7.17
2017-05-09T00:50:12.391Z,7.15
2017-05-09T00:50:52.921Z,7.12
2017-05-09T00:51:33.460Z,7.12
2017-05-09T00:52:13.993Z,7.07
2017-05-09T00:52:54.523Z,7.06
2017-05-09T00:53:35.052Z,7.02
2017-05-09T00:54:15.585Z,7.06
2017-05-09T00:54:56.114Z,7.05
2017-05-09T00:55:36.644Z,7.07
2017-05-09T00:56:17.177Z,6.99
2017-05-09T00:56:57.708Z,6.98
2017-05-09T00:57:38.238Z,6.97
2017-05-09T00:58:18.780Z,6.95
2017-05-09T00:58:59.317Z,6.95
2017-05-09T00:59:39.838Z,6.95
2017-05-09T01:00:20.369Z,6.95
2017-05-09T01:01:00.901Z,6.92
2017-05-09T01:01:41.439Z,6.98
2017-05-09T01:02:21.968Z,6.98
2017-05-09T01:03:02.488Z,6.97
2017-05-09T01:03:43.015Z,6.98
2017-05-09T01:04:23.557Z,6.94
2017-05-09T01:05:04.085Z,6.94
2017-05-09T01:05:44.611Z,6.95
2017-05-09T01:06:25.147Z,6.92
2017-05-09T01:07:05.683Z,6.94
2017-05-09T01:07:46.209Z,6.95
2017-05-09T01:08:26.737Z,6.97
2017-05-09T01:09:07.276Z,6.97
2017-05-09T01:09:47.792Z,6.95
2017-05-09T01:10:28.324Z,6.97
2017-05-09T01:11:08.857Z,6.99
2017-05-09T01:11:49.398Z,6.92
2017-05-09T01:12:29.926Z,6.97
2017-05-09T01:14:08.708Z,6.91
2017-05-09T01:14:49.240Z,6.85
2017-05-09T01:15:29.762Z,6.85
2017-05-09T01:16:10.300Z,6.88
2017-05-09T01:16:50.833Z,6.94
2017-05-09T01:17:31.367Z,6.87
2017-05-09T01:19:46.368Z,6.85
2017-05-09T01:20:26.893Z,6.85
2017-05-09T01:21:07.419Z,6.87
2017-05-09T01:21:47.952Z,6.87
2017-05-09T01:22:28.483Z,6.77
2017-05-09T01:23:09.014Z,6.97
2017-05-09T01:23:49.545Z,6.85
2017-05-09T01:24:30.089Z,6.81
2017-05-09T01:25:10.640Z,6.95
2017-05-09T01:25:51.160Z,6.88
2017-05-09T01:26:31.692Z,6.85
2017-05-09T01:27:12.222Z,6.84
2017-05-09T01:27:52.754Z,6.91
2017-05-09T01:28:33.292Z,6.88
2017-05-09T01:29:13.826Z,6.87
2017-05-09T01:29:54.352Z,6.8
2017-05-09T01:30:34.888Z,6.85
2017-05-09T01:31:15.422Z,6.85
2017-05-09T01:31:55.953Z,6.89
2017-05-09T01:32:36.485Z,6.89
2017-05-09T01:33:17.010Z,6.84
2017-05-09T01:33:57.540Z,6.89
2017-05-09T01:34:38.076Z,6.89
2017-05-09T01:35:18.606Z,6.85
2017-05-09T01:35:59.130Z,6.81
2017-05-09T01:36:39.656Z,6.88
2017-05-09T01:37:20.194Z,6.85
2017-05-09T01:38:00.725Z,6.85
2017-05-09T01:38:41.252Z,6.81
2017-05-09T01:39:21.791Z,6.81
2017-05-09T01:40:02.323Z,6.81
2017-05-09T01:40:42.857Z,6.79
2017-05-09T01:41:23.405Z,6.85
2017-05-09T01:42:03.925Z,6.76
2017-05-09T01:42:44.456Z,6.92
2017-05-09T01:43:24.989Z,6.88
2017-05-09T01:44:05.518Z,6.87
2017-05-09T01:44:46.049Z,6.92
2017-05-09T01:45:26.586Z,6.84
2017-05-09T01:46:07.126Z,6.77
2017-05-09T01:46:47.656Z,6.81
2017-05-09T01:47:28.189Z,6.79
2017-05-09T01:48:08.720Z,6.81
2017-05-09T01:48:49.256Z,6.8
2017-05-09T01:49:29.783Z,6.77
2017-05-09T01:50:10.328Z,6.79
2017-05-09T01:50:50.848Z,6.79
2017-05-09T01:51:31.372Z,6.79
2017-05-09T01:52:11.901Z,6.79
2017-05-09T01:52:52.434Z,6.76
2017-05-09T01:53:32.967Z,6.7
2017-05-09T01:54:13.493Z,6.76
2017-05-09T01:54:54.028Z,6.73
2017-05-09T01:55:34.563Z,6.79
2017-05-09T01:56:15.095Z,6.76
2017-05-09T01:56:55.618Z,6.77
2017-05-09T01:57:36.174Z,6.76
2017-05-09T01:58:16.679Z,6.7
2017-05-09T01:58:57.221Z,6.76
2017-05-09T01:59:37.727Z,6.7
2017-05-09T02:00:18.246Z,6.69
2017-05-09T02:00:58.773Z,6.74
2017-05-09T02:01:39.307Z,6.71
2017-05-09T02:02:19.846Z,6.62
2017-05-09T02:03:00.379Z,6.61
2017-05-09T02:03:40.907Z,6.56
2017-05-09T02:04:21.436Z,6.69
2017-05-09T02:05:01.979Z,6.66
2017-05-09T02:05:42.501Z,6.56
2017-05-09T02:06:23.037Z,6.61
2017-05-09T02:07:03.568Z,6.61
2017-05-09T02:07:44.100Z,6.66
2017-05-09T02:08:24.633Z,6.59
2017-05-09T02:09:05.169Z,6.58
2017-05-09T02:09:45.701Z,6.61
2017-05-09T02:10:26.319Z,6.61
2017-05-09T02:11:06.849Z,6.61
2017-05-09T02:11:47.382Z,6.66
2017-05-09T02:12:27.916Z,6.62
2017-05-09T02:13:08.450Z,6.61
2017-05-09T02:13:48.982Z,6.64
2017-05-09T02:14:29.509Z,6.59
2017-05-09T02:15:10.033Z,6.58
2017-05-09T02:15:50.578Z,6.59
2017-05-09T02:16:31.088Z,6.55
2017-05-09T02:17:11.623Z,6.56
2017-05-09T02:17:52.156Z,6.54
2017-05-09T02:18:32.713Z,6.58
2017-05-09T02:19:13.227Z,6.55
2017-05-09T02:19:53.755Z,6.61
2017-05-09T02:20:34.286Z,6.58
2017-05-09T02:21:14.819Z,6.55
2017-05-09T02:21:55.344Z,6.48
2017-05-09T02:22:35.878Z,6.58
2017-05-09T02:23:16.412Z,6.59
2017-05-09T02:23:56.959Z,6.58
2017-05-09T02:24:37.488Z,6.48
2017-05-09T02:25:18.024Z,6.54
2017-05-09T02:25:58.557Z,6.54
2017-05-09T02:26:39.108Z,6.59
2017-05-09T02:27:19.624Z,6.52
2017-05-09T02:28:00.155Z,6.43
2017-05-09T02:28:40.673Z,6.49
2017-05-09T02:29:21.200Z,6.51
2017-05-09T02:30:01.743Z,6.55
2017-05-09T02:30:42.300Z,6.43
2017-05-09T02:31:22.818Z,6.51
2017-05-09T02:32:03.357Z,6.49
2017-05-09T02:32:43.888Z,6.54
2017-05-09T02:33:24.416Z,6.55
2017-05-09T02:34:04.941Z,6.54
2017-05-09T02:34:45.471Z,6.44
2017-05-09T02:35:26.006Z,6.4
2017-05-09T02:36:06.540Z,6.54
2017-05-09T02:36:49.991Z,6.49
2017-05-09T02:37:30.528Z,6.44
2017-05-09T02:38:11.062Z,6.4
2017-05-09T02:38:51.597Z,6.43
2017-05-09T02:39:32.121Z,6.44
2017-05-09T02:40:12.652Z,6.4
2017-05-09T02:40:53.191Z,6.43
2017-05-09T02:41:33.729Z,6.44
2017-05-09T02:42:14.264Z,6.37
2017-05-09T02:42:54.807Z,6.41
2017-05-09T02:43:35.344Z,6.4
2017-05-09T02:44:15.876Z,6.4
2017-05-09T02:44:56.411Z,6.4
2017-05-09T02:45:36.927Z,6.4
2017-05-09T02:46:17.490Z,6.48
2017-05-09T02:46:57.995Z,6.52
2017-05-09T02:47:38.528Z,6.43
2017-05-09T02:48:19.085Z,6.48
2017-05-09T02:48:59.595Z,6.44
2017-05-09T02:49:40.128Z,6.46
2017-05-09T02:50:20.664Z,6.44
2017-05-09T02:51:01.194Z,6.49
2017-05-09T02:51:41.723Z,6.58
2017-05-09T02:52:22.271Z,6.44
2017-05-09T02:53:02.778Z,6.51
2017-05-09T02:53:43.318Z,6.51
2017-05-09T02:54:23.850Z,6.48
2017-05-09T02:55:04.377Z,6.54
2017-05-09T02:55:44.905Z,6.48
2017-05-09T02:56:25.440Z,6.49
2017-05-09T02:57:05.960Z,6.48
2017-05-09T02:57:46.484Z,6.46
2017-05-09T02:58:27.049Z,6.41
2017-05-09T02:59:07.541Z,6.36
2017-05-09T02:59:48.073Z,6.38
2017-05-09T03:00:28.603Z,6.38
2017-05-09T03:01:09.130Z,6.4
2017-05-09T03:01:49.659Z,6.37
2017-05-09T03:02:30.183Z,6.43
2017-05-09T03:03:10.718Z,6.43
2017-05-09T03:03:51.257Z,6.38
2017-05-09T03:04:31.796Z,6.46
2017-05-09T03:05:12.328Z,6.43
2017-05-09T03:05:52.858Z,6.43
2017-05-09T03:06:33.412Z,6.38
2017-05-09T03:07:13.993Z,6.38
2017-05-09T03:07:54.522Z,6.37
2017-05-09T03:08:35.055Z,6.41
2017-05-09T03:09:15.587Z,6.43
2017-05-09T03:09:56.158Z,6.43
2017-05-09T03:10:36.708Z,6.48
2017-05-09T03:11:17.237Z,6.41
2017-05-09T03:11:57.764Z,6.44
2017-05-09T03:12:38.315Z,6.4
2017-05-09T03:13:18.846Z,6.38
2017-05-09T03:13:59.378Z,6.38
2017-05-09T03:14:39.899Z,6.4
2017-05-09T03:15:20.434Z,6.4
2017-05-09T03:16:00.950Z,6.41
2017-05-09T03:16:41.488Z,6.44
2017-05-09T03:17:22.017Z,6.4
2017-05-09T03:18:02.547Z,6.4
2017-05-09T03:18:43.120Z,6.4
2017-05-09T03:19:23.613Z,6.36
2017-05-09T03:20:04.142Z,6.38
2017-05-09T03:20:44.680Z,6.41
2017-05-09T03:21:25.199Z,6.4
2017-05-09T03:22:05.728Z,6.33
2017-05-09T03:22:46.263Z,6.31
2017-05-09T03:23:26.797Z,6.33
2017-05-09T03:24:07.318Z,6.38
2017-05-09T03:24:47.850Z,6.31
2017-05-09T03:25:28.390Z,6.38
2017-05-09T03:26:08.922Z,6.31
2017-05-09T03:26:49.452Z,6.3
2017-05-09T03:27:29.979Z,6.37
2017-05-09T03:28:10.515Z,6.4
2017-05-09T03:28:51.044Z,6.34
2017-05-09T03:29:31.640Z,6.3
2017-05-09T03:30:12.172Z,6.36
2017-05-09T03:30:52.703Z,6.38
2017-05-09T03:31:33.235Z,6.38
2017-05-09T03:32:13.760Z,6.31
2017-05-09T03:32:54.299Z,6.34
2017-05-09T03:33:34.826Z,6.37
2017-05-09T03:34:15.355Z,6.34
2017-05-09T03:34:55.881Z,6.34
2017-05-09T03:35:36.410Z,6.33
2017-05-09T03:36:16.952Z,6.4
2017-05-09T03:36:57.474Z,6.34
2017-05-09T03:37:37.999Z,6.28
2017-05-09T03:38:18.563Z,6.3
2017-05-09T03:38:59.098Z,6.34
2017-05-09T03:39:39.622Z,6.34
2017-05-09T03:40:20.150Z,6.37
2017-05-09T03:41:00.684Z,6.34
2017-05-09T03:41:41.209Z,6.28
2017-05-09T03:42:21.743Z,6.21
2017-05-09T03:43:02.282Z,6.27
2017-05-09T03:43:42.819Z,6.25
2017-05-09T03:44:23.413Z,6.28
2017-05-09T03:45:03.951Z,6.22
2017-05-09T03:45:44.471Z,6.17
2017-05-09T03:46:25.010Z,6.21
2017-05-09T03:47:05.578Z,6.33
2017-05-09T03:47:46.068Z,6.22
2017-05-09T03:48:26.606Z,6.21
2017-05-09T03:49:07.117Z,6.25
2017-05-09T03:49:47.642Z,6.27
2017-05-09T03:50:28.179Z,6.15
2017-05-09T03:51:08.710Z,6.09
2017-05-09T03:51:49.219Z,6.19
2017-05-09T03:52:29.753Z,6.15
2017-05-09T03:53:10.284Z,6.25
2017-05-09T03:53:50.818Z,6.22
2017-05-09T03:54:31.350Z,6.19
2017-05-09T03:55:11.877Z,6.18
2017-05-09T03:55:52.426Z,6.15
2017-05-09T03:56:32.956Z,6.11
2017-05-09T03:57:13.482Z,6.12
2017-05-09T03:57:54.015Z,6.14
2017-05-09T03:58:34.631Z,6.11
2017-05-09T03:59:15.166Z,6.08
2017-05-09T03:59:55.697Z,6.11
2017-05-09T04:00:36.238Z,6.06
2017-05-09T04:01:16.772Z,6.11
2017-05-09T04:01:57.301Z,6.01
2017-05-09T04:02:37.829Z,5.96
2017-05-09T04:03:18.352Z,6.08
2017-05-09T04:03:58.889Z,6.06
2017-05-09T04:04:39.419Z,5.97
2017-05-09T04:05:19.959Z,5.96
2017-05-09T04:06:00.492Z,6
2017-05-09T04:06:41.033Z,5.99
2017-05-09T04:07:21.539Z,5.94
2017-05-09T04:08:02.065Z,5.96
2017-05-09T04:08:42.599Z,5.96
2017-05-09T04:09:23.132Z,5.91
2017-05-09T04:10:03.664Z,5.97
2017-05-09T04:10:44.202Z,5.94
2017-05-09T04:11:24.737Z,5.86
2017-05-09T04:12:05.266Z,5.86
2017-05-09T04:12:45.797Z,5.83
2017-05-09T04:13:26.328Z,5.78
2017-05-09T04:14:06.861Z,5.85
2017-05-09T04:14:47.396Z,5.83
2017-05-09T04:15:27.931Z,5.82
2017-05-09T04:16:08.460Z,5.81
2017-05-09T04:16:48.990Z,5.74
2017-05-09T04:17:29.534Z,5.78
2017-05-09T04:18:10.059Z,5.76
2017-05-09T04:18:50.593Z,5.74
2017-05-09T04:19:31.129Z,5.75
2017-05-09T04:20:11.664Z,5.74
2017-05-09T04:20:52.196Z,5.64
2017-05-09T04:21:32.725Z,5.71
2017-05-09T04:22:13.264Z,5.64
2017-05-09T04:22:53.802Z,5.64
2017-05-09T04:23:34.334Z,5.64
2017-05-09T04:24:14.872Z,5.61
2017-05-09T04:24:55.398Z,5.67
2017-05-09T04:25:35.935Z,5.61
2017-05-09T04:26:16.467Z,5.58
2017-05-09T04:26:56.993Z,5.58
2017-05-09T04:27:37.533Z,5.42
2017-05-09T04:28:18.131Z,5.42
2017-05-09T04:28:58.668Z,5.46
2017-05-09T04:29:39.210Z,5.42
2017-05-09T04:30:19.731Z,5.48
2017-05-09T04:31:00.252Z,5.45
2017-05-09T04:31:40.783Z,5.39
2017-05-09T04:32:21.308Z,5.45
2017-05-09T04:33:01.839Z,5.38
2017-05-09T04:33:42.437Z,5.33
2017-05-09T04:34:22.964Z,5.36
2017-05-09T04:35:03.520Z,5.33
2017-05-09T04:35:44.056Z,5.4
2017-05-09T04:36:24.589Z,5.35
2017-05-09T04:37:05.134Z,5.35
2017-05-09T04:37:45.673Z,5.38
2017-05-09T04:38:26.201Z,5.22
2017-05-09T04:39:06.746Z,5.28
2017-05-09T04:39:47.296Z,5.27
2017-05-09T04:40:27.821Z,5.38
2017-05-09T04:41:08.350Z,5.39
2017-05-09T04:41:48.889Z,5.33
2017-05-09T04:42:29.447Z,5.38
2017-05-09T04:43:09.968Z,5.35
2017-05-09T04:43:50.504Z,5.35
2017-05-09T04:44:31.035Z,5.28
2017-05-09T04:45:11.698Z,5.31
2017-05-09T04:45:52.247Z,5.35
2017-05-09T04:46:32.779Z,5.31
2017-05-09T04:47:13.309Z,5.35
2017-05-09T04:47:53.839Z,5.36
2017-05-09T04:48:34.371Z,5.31
2017-05-09T04:49:14.899Z,5.42
2017-05-09T04:49:55.433Z,5.4
2017-05-09T04:50:35.971Z,5.39
2017-05-09T04:51:16.506Z,5.33
2017-05-09T04:51:57.042Z,5.33
2017-05-09T04:52:37.573Z,5.36
2017-05-09T04:53:18.102Z,5.4
2017-05-09T04:53:58.639Z,5.36
2017-05-09T04:54:39.177Z,5.4
2017-05-09T04:55:19.710Z,5.31
2017-05-09T04:56:00.241Z,5.36
2017-05-09T04:56:40.775Z,5.35
2017-05-09T04:57:21.317Z,5.31
2017-05-09T04:58:01.892Z,5.31
2017-05-09T04:58:42.430Z,5.35
2017-05-09T04:59:22.960Z,5.36
2017-05-09T05:00:03.490Z,5.35
2017-05-09T05:00:44.072Z,5.3
2017-05-09T05:01:24.775Z,5.31
2017-05-09T05:02:05.593Z,5.33
2017-05-09T05:02:46.337Z,5.27
2017-05-09T05:03:27.152Z,5.33
2017-05-09T05:04:07.841Z,5.33
2017-05-09T05:04:48.664Z,5.39
2017-05-09T05:05:29.334Z,5.38
2017-05-09T05:06:09.961Z,5.36
2017-05-09T05:06:50.532Z,5.31
2017-05-09T05:07:31.066Z,5.42
2017-05-09T05:08:11.667Z,5.28
2017-05-09T05:08:52.208Z,5.35
2017-05-09T05:09:32.745Z,5.38
2017-05-09T05:10:13.287Z,5.33
2017-05-09T05:10:53.816Z,5.35
2017-05-09T05:11:34.360Z,5.46
2017-05-09T05:12:14.882Z,5.33
2017-05-09T05:12:55.420Z,5.4
2017-05-09T05:13:35.954Z,5.4
2017-05-09T05:14:16.479Z,5.4
2017-05-09T05:14:57.017Z,5.43
2017-05-09T05:15:37.551Z,5.35
2017-05-09T05:16:18.083Z,5.43
2017-05-09T05:16:58.630Z,5.43
2017-05-09T05:17:39.164Z,5.43
2017-05-09T05:18:19.683Z,5.43
2017-05-09T05:19:00.220Z,5.45
2017-05-09T05:19:40.753Z,5.46
2017-05-09T05:20:21.286Z,5.46
2017-05-09T05:21:01.815Z,5.48
2017-05-09T05:21:42.351Z,5.49
2017-05-09T05:22:22.880Z,5.46
2017-05-09T05:23:03.405Z,5.42
2017-05-09T05:23:43.923Z,5.42
2017-05-09T05:24:24.459Z,5.43
2017-05-09T05:25:04.995Z,5.43
2017-05-09T05:25:45.531Z,5.49
2017-05-09T05:26:26.065Z,5.48
2017-05-09T05:27:06.591Z,5.45
2017-05-09T05:27:47.130Z,5.43
2017-05-09T05:28:27.663Z,5.42
2017-05-09T05:29:08.200Z,5.4
2017-05-09T05:29:48.734Z,5.46
2017-05-09T05:30:29.269Z,5.48
2017-05-09T05:31:09.804Z,5.46
2017-05-09T05:31:50.338Z,5.42
2017-05-09T05:32:30.873Z,5.49
2017-05-09T05:33:11.399Z,5.49
2017-05-09T05:33:51.939Z,5.45
2017-05-09T05:34:32.509Z,5.49
2017-05-09T05:35:13.016Z,5.51
2017-05-09T05:35:53.542Z,5.43
2017-05-09T05:36:34.079Z,5.42
2017-05-09T05:37:14.602Z,5.58
2017-05-09T05:37:55.134Z,5.54
2017-05-09T05:38:35.667Z,5.6
2017-05-09T05:39:16.193Z,5.54
2017-05-09T05:39:56.728Z,5.61
2017-05-09T05:40:37.264Z,5.61
2017-05-09T05:41:17.794Z,5.65
2017-05-09T05:41:58.308Z,5.67
2017-05-09T05:42:38.880Z,5.63
2017-05-09T05:43:19.402Z,5.58
2017-05-09T05:43:59.937Z,5.67
2017-05-09T05:44:40.470Z,5.75
2017-05-09T05:45:21.026Z,5.74
2017-05-09T05:46:01.538Z,5.74
2017-05-09T05:46:42.057Z,5.78
2017-05-09T05:47:22.601Z,5.74
2017-05-09T05:48:03.135Z,5.83
2017-05-09T05:48:43.670Z,5.78
2017-05-09T05:49:24.202Z,5.86
2017-05-09T05:50:04.740Z,5.79
2017-05-09T05:50:45.281Z,5.86
2017-05-09T05:51:25.809Z,5.86
2017-05-09T05:52:06.392Z,6
2017-05-09T05:52:47.142Z,5.96
2017-05-09T05:53:27.738Z,6
2017-05-09T05:54:08.276Z,6.04
2017-05-09T05:54:48.806Z,6
2017-05-09T05:55:29.342Z,6.01
2017-05-09T05:56:09.870Z,6.04
2017-05-09T05:56:50.410Z,6.06
2017-05-09T05:57:30.947Z,6.11
2017-05-09T05:58:11.480Z,6.09
2017-05-09T05:58:52.013Z,6.12
2017-05-09T05:59:32.542Z,6.12
2017-05-09T06:00:13.068Z,6.14
2017-05-09T06:00:53.606Z,6.17
2017-05-09T06:01:34.124Z,6.18
2017-05-09T06:02:14.658Z,6.25
2017-05-09T06:02:55.200Z,6.25
2017-05-09T06:03:35.735Z,6.21
2017-05-09T06:04:16.266Z,6.28
2017-05-09T06:04:56.799Z,6.21
2017-05-09T06:05:37.332Z,6.27
2017-05-09T06:06:17.862Z,6.21
2017-05-09T06:06:58.383Z,6.31
2017-05-09T06:07:38.914Z,6.37
2017-05-09T06:08:19.448Z,6.4
2017-05-09T06:08:59.986Z,6.4
2017-05-09T06:09:40.545Z,6.44
2017-05-09T06:10:21.086Z,6.34
2017-05-09T06:11:01.608Z,6.44
2017-05-09T06:11:42.130Z,6.49
2017-05-09T06:12:22.658Z,6.56
2017-05-09T06:13:03.194Z,6.59
2017-05-09T06:13:43.720Z,6.54
2017-05-09T06:14:24.256Z,6.59
2017-05-09T06:15:04.783Z,6.56
2017-05-09T06:15:45.311Z,6.64
2017-05-09T06:16:25.861Z,6.59
2017-05-09T06:17:06.380Z,6.67
2017-05-09T06:17:46.916Z,6.67
2017-05-09T06:18:27.481Z,6.7
2017-05-09T06:19:08.018Z,6.77
2017-05-09T06:19:48.554Z,6.76
2017-05-09T06:20:29.086Z,6.74
2017-05-09T06:21:09.617Z,6.74
2017-05-09T06:21:50.156Z,6.71
2017-05-09T06:22:30.693Z,6.85
2017-05-09T06:23:11.227Z,6.79
2017-05-09T06:23:51.766Z,6.74
2017-05-09T06:24:32.310Z,6.85
2017-05-09T06:25:12.839Z,6.87
2017-05-09T06:25:53.371Z,6.95
2017-05-09T06:26:33.910Z,6.92
2017-05-09T06:27:14.449Z,6.97
2017-05-09T06:27:54.985Z,6.97
2017-05-09T06:28:35.518Z,6.98
2017-05-09T06:29:16.048Z,7.03
2017-05-09T06:29:56.571Z,7.15
2017-05-09T06:30:37.104Z,7.2
2017-05-09T06:31:17.637Z,7.13
2017-05-09T06:31:58.170Z,7.21
2017-05-09T06:32:38.698Z,7.13
2017-05-09T06:33:19.261Z,7.23
2017-05-09T06:33:59.781Z,7.27
2017-05-09T06:34:40.316Z,7.24
2017-05-09T06:35:20.844Z,7.31
2017-05-09T06:36:01.371Z,7.34
2017-05-09T06:36:41.919Z,7.25
2017-05-09T06:37:22.456Z,7.39
2017-05-09T06:38:02.998Z,7.42
2017-05-09T06:38:43.516Z,7.45
2017-05-09T06:39:24.055Z,7.45
2017-05-09T06:40:04.587Z,7.49
2017-05-09T06:40:45.126Z,7.46
2017-05-09T06:41:25.659Z,7.58
2017-05-09T06:42:06.185Z,7.61
2017-05-09T06:42:46.721Z,7.69
2017-05-09T06:43:27.260Z,7.72
2017-05-09T06:44:07.799Z,7.77
2017-05-09T06:44:48.339Z,7.8
2017-05-09T06:45:28.870Z,7.87
2017-05-09T06:46:09.403Z,7.92
2017-05-09T06:46:49.935Z,7.87
2017-05-09T06:47:30.474Z,8.08
2017-05-09T06:48:11.014Z,7.95
2017-05-09T06:48:51.551Z,8.07
2017-05-09T06:49:32.064Z,8.02
2017-05-09T06:50:12.611Z,8.11
2017-05-09T06:50:53.146Z,8.07
2017-05-09T06:51:33.687Z,8.19
2017-05-09T06:52:14.219Z,8.22
2017-05-09T06:52:54.751Z,8.26
2017-05-09T06:53:35.284Z,8.23
2017-05-09T06:54:15.808Z,8.34
2017-05-09T06:54:56.349Z,8.26
2017-05-09T06:55:36.883Z,8.4
2017-05-09T06:56:17.418Z,8.41
2017-05-09T06:56:57.954Z,8.45
2017-05-09T06:57:38.497Z,8.52
2017-05-09T06:58:19.014Z,8.53
2017-05-09T06:58:59.553Z,8.53
2017-05-09T06:59:40.094Z,8.61
2017-05-09T07:00:20.626Z,8.56
2017-05-09T07:01:01.171Z,8.68
2017-05-09T07:01:41.706Z,8.66
2017-05-09T07:02:22.239Z,8.74
2017-05-09T07:03:02.767Z,8.71
2017-05-09T07:03:43.297Z,8.76
2017-05-09T07:04:23.860Z,8.76
2017-05-09T07:05:04.375Z,8.74
2017-05-09T07:05:44.911Z,8.77
2017-05-09T07:06:25.443Z,8.84
2017-05-09T07:07:05.974Z,8.81
2017-05-09T07:07:46.514Z,8.79
2017-05-09T07:08:27.052Z,8.92
2017-05-09T07:09:07.593Z,8.94
2017-05-09T07:09:48.125Z,8.99
2017-05-09T07:10:28.663Z,9.05
2017-05-09T07:11:09.209Z,8.99
2017-05-09T07:11:49.747Z,9.15
2017-05-09T07:12:30.278Z,9.21
2017-05-09T07:13:10.807Z,9.21
2017-05-09T07:13:51.343Z,9.28
2017-05-09T07:14:31.891Z,9.28
2017-05-09T07:15:12.422Z,9.29
2017-05-09T07:15:52.965Z,9.35
2017-05-09T07:16:33.515Z,9.33
2017-05-09T07:17:14.053Z,9.31
2017-05-09T07:17:54.579Z,9.24
2017-05-09T07:18:35.116Z,9.35
2017-05-09T07:19:15.659Z,9.36
2017-05-09T07:19:56.193Z,9.26
2017-05-09T07:20:36.726Z,9.32
2017-05-09T07:21:17.271Z,9.31
2017-05-09T07:21:57.823Z,9.36
2017-05-09T07:22:38.360Z,9.46
2017-05-09T07:23:18.912Z,9.51
2017-05-09T07:23:59.428Z,9.56
2017-05-09T07:24:39.967Z,9.65
2017-05-09T07:25:20.505Z,9.75
2017-05-09T07:26:01.045Z,9.78
2017-05-09T07:26:41.585Z,9.89
2017-05-09T07:27:22.125Z,9.96
2017-05-09T07:28:02.666Z,10.01
2017-05-09T07:28:43.209Z,10.15
2017-05-09T07:29:23.739Z,10.25
2017-05-09T07:30:04.275Z,10.34
2017-05-09T07:30:44.820Z,10.32
2017-05-09T07:31:25.400Z,10.41
2017-05-09T07:32:05.914Z,10.47
2017-05-09T07:32:46.455Z,10.56
2017-05-09T07:33:27.001Z,10.59
2017-05-09T07:34:07.543Z,10.7
2017-05-09T07:34:48.082Z,10.84
2017-05-09T07:35:28.631Z,10.86
2017-05-09T07:36:09.168Z,10.96
2017-05-09T07:36:49.702Z,11.09
2017-05-09T07:37:30.239Z,11.04
2017-05-09T07:38:10.794Z,11.15
2017-05-09T07:38:51.316Z,11.17
2017-05-09T07:39:31.854Z,11.21
2017-05-09T07:40:12.393Z,11.36
2017-05-09T07:40:52.929Z,11.33
2017-05-09T07:41:33.459Z,11.47
2017-05-09T07:42:14.000Z,11.55
2017-05-09T07:42:54.554Z,11.51
2017-05-09T07:43:35.080Z,11.7
2017-05-09T07:44:15.616Z,11.78
2017-05-09T07:44:56.166Z,11.88
2017-05-09T07:45:36.703Z,12.05
2017-05-09T07:46:17.243Z,12.17
2017-05-09T07:46:57.793Z,12.27
2017-05-09T07:47:38.311Z,12.31
2017-05-09T07:48:18.852Z,12.5
2017-05-09T07:48:59.377Z,12.65
2017-05-09T07:49:39.923Z,12.7
2017-05-09T07:50:20.465Z,12.85
2017-05-09T07:51:01.029Z,12.85
2017-05-09T07:51:41.573Z,12.97
2017-05-09T07:52:22.111Z,13.03
2017-05-09T07:53:02.653Z,13.14
2017-05-09T07:53:43.214Z,13.2
2017-05-09T07:54:23.757Z,13.3
2017-05-09T07:55:04.301Z,13.41
2017-05-09T07:55:44.852Z,13.38
2017-05-09T07:56:25.400Z,13.41
2017-05-09T07:57:05.955Z,13.45
2017-05-09T07:57:46.501Z,13.59
2017-05-09T07:58:27.029Z,13.59
2017-05-09T07:59:07.567Z,13.67
2017-05-09T07:59:48.113Z,13.66
2017-05-09T08:00:28.650Z,13.81
2017-05-09T08:01:09.191Z,13.87
2017-05-09T08:01:49.732Z,13.99
2017-05-09T08:02:30.273Z,14.03
2017-05-09T08:03:10.815Z,14.1
2017-05-09T08:03:51.361Z,14.21
2017-05-09T08:04:31.902Z,14.33
2017-05-09T08:05:12.427Z,14.55
2017-05-09T08:05:52.971Z,14.7
2017-05-09T08:06:33.514Z,14.8
2017-05-09T08:07:14.058Z,14.83
2017-05-09T08:07:54.617Z,15.06
2017-05-09T08:08:35.133Z,15.16
2017-05-09T08:09:15.672Z,15.23
2017-05-09T08:09:56.218Z,15.17
2017-05-09T08:10:36.755Z,15.11
2017-05-09T08:11:17.292Z,15.09
2017-05-09T08:11:57.831Z,15.03
2017-05-09T08:12:38.375Z,15.14
2017-05-09T08:13:18.912Z,15.29
2017-05-09T08:13:59.459Z,15.59
2017-05-09T08:14:39.995Z,15.78
2017-05-09T08:15:20.532Z,15.82
2017-05-09T08:16:01.075Z,15.89
2017-05-09T08:16:41.620Z,16.02
2017-05-09T08:17:22.160Z,15.96
2017-05-09T08:18:02.691Z,16.01
2017-05-09T08:18:43.232Z,15.75
2017-05-09T08:19:23.772Z,15.46
2017-05-09T08:20:04.315Z,15.32
2017-05-09T08:20:44.856Z,15.25
2017-05-09T08:21:25.399Z,15.27
2017-05-09T08:22:05.937Z,15.21
2017-05-09T08:22:46.476Z,15.21
2017-05-09T08:23:27.020Z,15.34
2017-05-09T08:24:07.580Z,15.43
2017-05-09T08:24:48.140Z,15.47
2017-05-09T08:25:28.684Z,15.47
2017-05-09T08:26:09.210Z,15.35
2017-05-09T08:26:49.746Z,15.34
2017-05-09T08:27:30.290Z,15.46
2017-05-09T08:28:10.832Z,15.62
2017-05-09T08:28:51.402Z,15.69
2017-05-09T08:29:31.926Z,15.8
2017-05-09T08:30:12.467Z,15.9
2017-05-09T08:30:53.000Z,15.9
2017-05-09T08:31:33.581Z,15.87
2017-05-09T08:32:14.137Z,15.82
2017-05-09T08:32:54.683Z,15.84
2017-05-09T08:33:35.226Z,15.76
2017-05-09T08:34:15.769Z,15.69
2017-05-09T08:34:56.313Z,15.49
2017-05-09T08:35:36.862Z,15.14
2017-05-09T08:36:17.415Z,14.88
2017-05-09T08:36:57.933Z,14.64
2017-05-09T08:37:38.477Z,14.64
2017-05-09T08:38:19.017Z,14.62
2017-05-09T08:38:59.557Z,14.5
2017-05-09T08:39:40.101Z,14.21
2017-05-09T08:40:20.640Z,14.04
2017-05-09T08:41:01.189Z,13.87
2017-05-09T08:41:41.728Z,13.92
2017-05-09T08:42:22.275Z,13.82
2017-05-09T08:43:02.825Z,13.82
2017-05-09T08:43:43.369Z,13.85
2017-05-09T08:44:23.916Z,13.92
2017-05-09T08:45:04.456Z,13.96
2017-05-09T08:45:45.002Z,14
2017-05-09T08:46:25.553Z,14.06
2017-05-09T08:47:06.101Z,14.06
2017-05-09T08:47:46.640Z,14.12
2017-05-09T08:48:27.173Z,14.12
2017-05-09T08:49:07.714Z,14.02
2017-05-09T08:49:48.271Z,13.95
2017-05-09T08:50:28.792Z,13.87
2017-05-09T08:51:09.335Z,13.82
2017-05-09T08:51:49.872Z,13.85
2017-05-09T08:52:30.407Z,13.99
2017-05-09T08:53:10.955Z,14.14
2017-05-09T08:53:51.495Z,14.39
2017-05-09T08:54:32.039Z,14.55
2017-05-09T08:55:12.584Z,14.78
2017-05-09T08:55:53.124Z,14.73
2017-05-09T08:56:33.663Z,14.8
2017-05-09T08:57:14.208Z,14.8
2017-05-09T08:57:54.749Z,14.62
2017-05-09T08:58:35.289Z,14.45
2017-05-09T08:59:15.836Z,14.32
2017-05-09T08:59:56.374Z,14.07
2017-05-09T09:00:36.922Z,13.99